x

Hi-a389 Tabs V (42047) Weather Station

1:00am - Mon 27th Feb 2017 All times are CST. -6 hours from GMT.

  • Wind
    20mph, 25mph gusts
  • Sea Temp 71°f
  • Air Temp 68°f
  • Sea Pressure 1015mb
  • Hi-a389 Tabs V
  • Hi-a389 Tabs V

More Historic Weather Station data

Upgrade to MSW Pro to gain access to the past 30 days of data for over 8000 Wavebouys and Weather Stations around the globe.

Join Pro

Comparision Forecast

View Surf forecast
   
Mon 02/27 1:00am 20 25 mph 1015mb 71f 68f
12:00am 20 25 mph 1015.1mb 71f 68f
Sun 02/26 11:00pm 16 18 mph 1015.3mb 71f 68f
4:00pm 18 22 mph 1014.6mb 71f 68f
3:00pm 18 20 mph 1014.9mb 71f 68f
2:00pm 18 22 mph 1015.2mb 71f 68f
12:00pm 20 22 mph 1017.5mb 71f 68f
10:00am 20 22 mph 1018.5mb 71f 67f
9:00am 20 25 mph 1018.4mb 71f 67f
8:00am 20 25 mph 1017.8mb 71f 66f
7:00am 18 20 mph 1017.5mb 71f 65f
6:00am 18 20 mph 1017.2mb 71f 65f
4:00am 18 20 mph 1016.5mb 71f 64f
3:00am 16 20 mph 1016.7mb 71f 63f
2:00am 16 20 mph 1017.1mb 71f 63f
1:00am 18 22 mph 1017.6mb 71f 63f
12:00am 18 20 mph 1017.8mb 71f 63f
Sat 02/25 5:00pm 18 22 mph 1017.6mb 71f 61f
4:00pm 18 22 mph 1017.6mb 71f 61f
2:00pm 20 22 mph 1017.9mb 71f 61f
12:00pm 20 22 mph 1018.9mb 71f 61f
5:00am 25 31 mph 1014.8mb 71f 62f
4:00am 22 29 mph 1013.6mb 71f 63f
2:00am 25 31 mph 1012.9mb 71f 64f
12:00am 9 11 mph 1012.2mb 71f 67f
Fri 02/24 4:00pm 2 4 mph 1008.5mb 72f 70f
2:00pm 4 7 mph 1009.1mb 72f 69f
1:00pm 7 9 mph 1009mb 71f 69f
12:00pm 11 13 mph 1009.6mb 71f 69f
11:00am 18 22 mph 1008.8mb 71f 69f
10:00am 20 25 mph 1008.1mb 71f 69f
9:00am 20 22 mph 1007.9mb 71f 68f
1:00am 20 25 mph 1006.8mb 71f 67f
12:00am 20 22 mph 1007.3mb 72f 66f
Thu 02/23 5:00pm 13 18 mph 1006.6mb 72f 68f
4:00pm 13 16 mph 1007.1mb 72f 68f
3:00pm 13 16 mph 1007.5mb 72f 68f
2:00pm 13 16 mph 1008mb 72f 68f
1:00pm 13 18 mph 1008.8mb 72f 67f
11:00am 13 16 mph 1010.1mb 71f 67f
10:00am 13 16 mph 1010.5mb 71f 66f